createdAt,value
2022-08-22T00:01:33.775Z,100528.50
2022-08-22T00:02:43.366Z,100471.59
2022-08-22T00:03:06.479Z,100495.63
2022-08-22T00:03:07.175Z,100468.25
2022-08-22T00:04:07.187Z,100526.84
2022-08-22T00:06:16.862Z,100526.44
2022-08-22T00:08:29.057Z,100531.56
2022-08-22T00:10:36.028Z,100532.72
2022-08-22T00:12:54.862Z,100535.53
2022-08-22T00:15:42.077Z,100529.47
2022-08-22T00:17:57.424Z,100531.38
2022-08-22T00:20:28.133Z,100532.53
2022-08-22T00:22:49.484Z,100527.69
2022-08-22T00:25:20.591Z,100536.81
2022-08-22T00:27:38.304Z,100533.03
2022-08-22T00:30:09.275Z,100527.44
2022-08-22T00:32:17.951Z,100523.78
2022-08-22T00:34:22.876Z,100533.41
2022-08-22T00:36:31.868Z,100530.16
2022-08-22T00:38:41.211Z,100534.94
2022-08-22T00:41:19.655Z,100533.31
2022-08-22T00:43:57.793Z,100534.41
2022-08-22T00:46:30.070Z,100529.03
2022-08-22T00:48:35.502Z,100534.22
2022-08-22T00:50:59.658Z,100537.03
2022-08-22T00:53:11.075Z,100537.75
2022-08-22T00:55:34.919Z,100541.28
2022-08-22T00:58:31.299Z,100535.94
2022-08-22T01:00:43.672Z,100545.41
2022-08-22T01:03:13.943Z,100537.88
2022-08-22T01:05:31.756Z,100543.78
2022-08-22T01:07:38.203Z,100537.41
2022-08-22T01:09:55.974Z,100539.00
2022-08-22T01:12:26.555Z,100533.44
2022-08-22T01:15:00.615Z,100541.00
2022-08-22T01:17:05.918Z,100540.56
2022-08-22T01:19:50.290Z,100540.19
2022-08-22T01:22:10.709Z,100546.88
2022-08-22T01:25:08.414Z,100538.50
2022-08-22T01:27:39.286Z,100541.28
2022-08-22T01:30:04.880Z,100537.31
2022-08-22T01:32:29.133Z,100544.41
2022-08-22T01:34:43.521Z,100541.63
2022-08-22T01:37:07.812Z,100540.47
2022-08-22T01:39:36.920Z,100549.19
2022-08-22T01:42:17.778Z,100542.00
2022-08-22T01:44:47.187Z,100548.28
2022-08-22T01:47:08.885Z,100542.25
2022-08-22T01:49:18.233Z,100557.03
2022-08-22T01:51:32.155Z,100558.63
2022-08-22T01:53:51.707Z,100554.25
2022-08-22T01:55:57.031Z,100551.47
2022-08-22T01:58:05.088Z,100557.47
2022-08-22T02:00:18.170Z,100557.91
2022-08-22T02:02:37.559Z,100552.34
2022-08-22T02:05:19.252Z,100565.19
2022-08-22T02:07:40.514Z,100560.00
2022-08-22T02:10:07.861Z,100563.66
2022-08-22T02:12:31.421Z,100566.91
2022-08-22T02:14:34.056Z,100570.97
2022-08-22T02:16:44.332Z,100563.50
2022-08-22T02:19:07.934Z,100560.34
2022-08-22T02:21:27.559Z,100567.25
2022-08-22T02:23:57.450Z,100565.38
2022-08-22T02:26:03.125Z,100568.97
2022-08-22T02:28:20.114Z,100568.69
2022-08-22T02:30:31.349Z,100569.53
2022-08-22T02:33:04.718Z,100568.34
2022-08-22T02:35:07.542Z,100566.81
2022-08-22T02:37:24.418Z,100563.66
2022-08-22T02:39:33.976Z,100570.56
2022-08-22T02:41:55.010Z,100565.06
2022-08-22T02:44:26.069Z,100566.34
2022-08-22T02:46:47.237Z,100574.34
2022-08-22T02:49:14.042Z,100574.81
2022-08-22T02:51:24.911Z,100576.84
2022-08-22T02:53:46.495Z,100571.03
2022-08-22T02:56:19.794Z,100577.13
2022-08-22T02:58:59.271Z,100583.25
2022-08-22T03:01:02.769Z,100579.72
2022-08-22T03:03:26.895Z,100579.34
2022-08-22T03:05:40.507Z,100582.31
2022-08-22T03:07:51.179Z,100576.28
2022-08-22T03:10:14.037Z,100581.56
2022-08-22T03:12:30.102Z,100577.78
2022-08-22T03:14:42.870Z,100581.31
2022-08-22T03:16:51.237Z,100587.09
2022-08-22T03:19:03.737Z,100588.06
2022-08-22T03:21:15.491Z,100590.56
2022-08-22T03:23:36.475Z,100585.44
2022-08-22T03:25:50.026Z,100593.44
2022-08-22T03:28:03.551Z,100591.53
2022-08-22T03:30:38.624Z,100596.47
2022-08-22T03:32:49.670Z,100599.31
2022-08-22T03:35:04.057Z,100593.81
2022-08-22T03:37:21.256Z,100605.13
2022-08-22T03:39:53.214Z,100607.19
2022-08-22T03:42:03.740Z,100609.66
2022-08-22T03:44:28.183Z,100611.00
2022-08-22T03:46:56.716Z,100612.59
2022-08-22T03:49:27.147Z,100615.53
2022-08-22T03:51:38.722Z,100614.84
2022-08-22T03:53:59.791Z,100614.94
2022-08-22T03:56:20.826Z,100617.41
2022-08-22T03:58:32.398Z,100615.94
2022-08-22T04:00:35.497Z,100619.66
2022-08-22T04:02:44.352Z,100620.91
2022-08-22T04:05:05.620Z,100625.03
2022-08-22T04:07:46.190Z,100625.53
2022-08-22T04:10:07.327Z,100624.41
2022-08-22T04:12:39.446Z,100627.66
2022-08-22T04:15:14.962Z,100626.97
2022-08-22T04:17:51.530Z,100616.59
2022-08-22T04:20:30.783Z,100623.84
2022-08-22T04:22:58.987Z,100620.63
2022-08-22T04:25:39.659Z,100623.19
2022-08-22T04:28:01.004Z,100623.72
2022-08-22T04:30:11.339Z,100625.34
2022-08-22T04:32:16.724Z,100626.25
2022-08-22T04:34:40.367Z,100619.56
2022-08-22T04:36:59.897Z,100627.75
2022-08-22T04:39:13.381Z,100623.09
2022-08-22T04:41:25.595Z,100628.78
2022-08-22T04:43:50.692Z,100628.50
2022-08-22T04:46:23.611Z,100625.41
2022-08-22T04:48:35.094Z,100629.09
2022-08-22T04:50:43.525Z,100632.03
2022-08-22T04:52:49.081Z,100627.72
2022-08-22T04:55:04.050Z,100630.63
2022-08-22T04:57:11.425Z,100625.88
2022-08-22T04:59:18.120Z,100623.91
2022-08-22T05:01:25.895Z,100626.44
2022-08-22T05:03:30.535Z,100624.94
2022-08-22T05:05:38.699Z,100624.16
2022-08-22T05:08:01.092Z,100619.41
2022-08-22T05:10:13.302Z,100627.09
2022-08-22T05:12:22.807Z,100629.59
2022-08-22T05:14:51.577Z,100622.47
2022-08-22T05:16:59.523Z,100630.97
2022-08-22T05:19:16.581Z,100626.63
2022-08-22T05:21:27.143Z,100634.75
2022-08-22T05:23:36.383Z,100627.16
2022-08-22T05:25:43.109Z,100626.41
2022-08-22T05:27:56.339Z,100619.63
2022-08-22T05:30:09.252Z,100627.31
2022-08-22T05:32:32.461Z,100626.94
2022-08-22T05:34:39.490Z,100623.75
2022-08-22T05:36:57.342Z,100622.56
2022-08-22T05:39:03.931Z,100631.44
2022-08-22T05:41:11.831Z,100625.88
2022-08-22T05:43:14.669Z,100630.72
2022-08-22T05:45:19.161Z,100626.38
2022-08-22T05:47:31.982Z,100624.38
2022-08-22T05:49:45.892Z,100632.84
2022-08-22T05:51:53.801Z,100625.63
2022-08-22T05:54:12.860Z,100623.66
2022-08-22T05:56:43.275Z,100625.69
2022-08-22T05:59:00.295Z,100625.28
2022-08-22T06:01:34.963Z,100625.69
2022-08-22T06:03:47.752Z,100628.53
2022-08-22T06:05:56.200Z,100626.13
2022-08-22T06:08:08.280Z,100624.13
2022-08-22T06:10:26.299Z,100621.72
2022-08-22T06:12:51.207Z,100621.34
2022-08-22T06:15:11.857Z,100620.56
2022-08-22T06:17:22.811Z,100627.81
2022-08-22T06:19:25.798Z,100627.03
2022-08-22T06:21:39.591Z,100623.00
2022-08-22T06:23:48.457Z,100620.19
2022-08-22T06:25:54.267Z,100626.25
2022-08-22T06:27:59.173Z,100625.44
2022-08-22T06:30:04.101Z,100629.06
2022-08-22T06:32:44.379Z,100628.25
2022-08-22T06:34:45.214Z,100633.47
2022-08-22T06:36:51.539Z,100632.28
2022-08-22T06:39:12.569Z,100631.84
2022-08-22T06:41:15.372Z,100629.03
2022-08-22T06:43:19.060Z,100631.84
2022-08-22T06:45:33.195Z,100641.91
2022-08-22T06:47:49.836Z,100635.03
2022-08-22T06:49:59.738Z,100626.56
2022-08-22T06:52:09.793Z,100623.31
2022-08-22T06:54:22.315Z,100624.09
2022-08-22T06:56:29.869Z,100634.56
2022-08-22T06:58:43.993Z,100630.94
2022-08-22T07:01:12.010Z,100633.34
2022-08-22T07:03:37.466Z,100627.28
2022-08-22T07:05:43.074Z,100627.63
2022-08-22T07:07:46.353Z,100628.00
2022-08-22T07:09:55.530Z,100623.53
2022-08-22T07:12:02.317Z,100625.09
2022-08-22T07:14:16.093Z,100619.41
2022-08-22T07:16:29.375Z,100614.53
2022-08-22T07:18:33.292Z,100623.41
2022-08-22T07:20:42.348Z,100623.41
2022-08-22T07:22:57.806Z,100625.38
2022-08-22T07:25:07.886Z,100618.50
2022-08-22T07:27:37.590Z,100620.88
2022-08-22T07:29:49.646Z,100620.81
2022-08-22T07:32:14.012Z,100615.97
2022-08-22T07:34:44.940Z,100607.06
2022-08-22T07:36:56.542Z,100616.28
2022-08-22T07:39:28.431Z,100612.19
2022-08-22T07:41:50.506Z,100623.13
2022-08-22T07:44:00.446Z,100619.09
2022-08-22T07:46:25.034Z,100618.66
2022-08-22T07:48:33.989Z,100623.47
2022-08-22T07:50:57.672Z,100611.75
2022-08-22T07:53:20.563Z,100614.59
2022-08-22T07:55:26.067Z,100615.75
2022-08-22T07:57:34.151Z,100607.75
2022-08-22T07:59:43.050Z,100614.97
2022-08-22T08:02:00.483Z,100621.41
2022-08-22T08:04:15.050Z,100611.28
2022-08-22T08:06:23.576Z,100605.97
2022-08-22T08:08:28.904Z,100604.38
2022-08-22T08:10:35.051Z,100610.81
2022-08-22T08:13:02.282Z,100608.69
2022-08-22T08:15:48.001Z,100608.59
2022-08-22T08:17:55.702Z,100602.53
2022-08-22T08:20:03.029Z,100610.97
2022-08-22T08:22:07.198Z,100600.44
2022-08-22T08:24:15.891Z,100609.63
2022-08-22T08:26:30.328Z,100602.31
2022-08-22T08:28:38.753Z,100602.22
2022-08-22T08:30:55.596Z,100610.63
2022-08-22T08:33:25.033Z,100614.94
2022-08-22T08:36:02.626Z,100608.78
2022-08-22T08:38:17.466Z,100607.53
2022-08-22T08:40:33.385Z,100598.50
2022-08-22T08:43:23.620Z,100602.78
2022-08-22T08:45:35.327Z,100603.81
2022-08-22T08:48:15.901Z,100596.41
2022-08-22T08:50:36.765Z,100597.19
2022-08-22T08:52:52.697Z,100595.59
2022-08-22T08:55:30.829Z,100601.97
2022-08-22T08:57:55.634Z,100596.66
2022-08-22T09:00:01.027Z,100600.53
2022-08-22T09:02:35.779Z,100599.63
2022-08-22T09:05:19.674Z,100603.13
2022-08-22T09:07:42.460Z,100598.16
2022-08-22T09:10:00.330Z,100599.69
2022-08-22T09:12:56.351Z,100598.09
2022-08-22T09:15:14.399Z,100600.06
2022-08-22T09:18:09.404Z,100597.75
2022-08-22T09:20:17.755Z,100596.31
2022-08-22T09:22:52.358Z,100600.63
2022-08-22T09:25:00.728Z,100596.47
2022-08-22T09:27:17.725Z,100594.00
2022-08-22T09:32:24.975Z,100593.81
2022-08-22T09:34:41.366Z,100597.13
2022-08-22T09:37:06.642Z,100596.91
2022-08-22T09:39:45.639Z,100592.19
2022-08-22T09:42:20.322Z,100588.28
2022-08-22T09:44:40.775Z,100595.00
2022-08-22T09:47:08.402Z,100588.91
2022-08-22T09:49:27.112Z,100582.56
2022-08-22T09:51:41.414Z,100591.50
2022-08-22T09:53:50.472Z,100589.03
2022-08-22T09:56:01.325Z,100575.59
2022-08-22T09:58:41.589Z,100583.84
2022-08-22T10:00:54.958Z,100584.63
2022-08-22T10:03:20.123Z,100582.53
2022-08-22T10:05:59.039Z,100579.63
2022-08-22T10:08:20.118Z,100583.25
2022-08-22T10:10:54.723Z,100578.81
2022-08-22T10:13:41.550Z,100578.72
2022-08-22T10:16:17.442Z,100572.28
2022-08-22T10:18:53.946Z,100571.31
2022-08-22T10:20:59.047Z,100567.00
2022-08-22T10:23:24.291Z,100568.66
2022-08-22T10:25:45.961Z,100569.09
2022-08-22T10:27:57.495Z,100563.94
2022-08-22T10:30:16.473Z,100569.50
2022-08-22T10:32:40.598Z,100565.50
2022-08-22T10:34:51.091Z,100562.25
2022-08-22T10:37:12.950Z,100566.88
2022-08-22T10:39:38.300Z,100558.09
2022-08-22T10:42:18.584Z,100554.00
2022-08-22T10:44:43.455Z,100558.16
2022-08-22T10:46:53.008Z,100555.28
2022-08-22T10:49:08.067Z,100551.38
2022-08-22T10:51:19.624Z,100557.50
2022-08-22T10:53:34.936Z,100544.06
2022-08-22T10:55:42.365Z,100548.78
2022-08-22T10:57:52.886Z,100542.34
2022-08-22T11:00:02.837Z,100541.06
2022-08-22T11:02:18.627Z,100547.56
2022-08-22T11:04:32.394Z,100546.81
2022-08-22T11:07:01.623Z,100545.72
2022-08-22T11:09:22.210Z,100541.28
2022-08-22T11:11:38.356Z,100543.66
2022-08-22T11:14:17.591Z,100535.56
2022-08-22T11:16:56.215Z,100537.63
2022-08-22T11:19:15.011Z,100530.66
2022-08-22T11:21:51.023Z,100530.78
2022-08-22T11:24:06.610Z,100520.22
2022-08-22T11:27:01.704Z,100518.75
2022-08-22T11:29:24.456Z,100522.63
2022-08-22T11:54:31.334Z,100505.09
2022-08-22T11:57:02.365Z,100509.34
2022-08-22T11:59:16.407Z,100516.13
2022-08-22T12:01:27.401Z,100511.09
2022-08-22T12:04:04.282Z,100515.41
2022-08-22T12:06:26.540Z,100518.81
2022-08-22T12:08:29.893Z,100515.19
2022-08-22T12:10:36.264Z,100507.50
2022-08-22T12:12:57.324Z,100515.16
2022-08-22T12:15:13.577Z,100510.94
2022-08-22T12:17:55.796Z,100493.66
2022-08-22T12:20:16.359Z,100506.56
2022-08-22T12:22:57.745Z,100503.97
2022-08-22T12:25:19.520Z,100509.34
2022-08-22T12:27:48.225Z,100505.09
2022-08-22T12:30:13.915Z,100504.59
2022-08-22T12:32:38.243Z,100498.81
2022-08-22T12:34:55.536Z,100499.94
2022-08-22T12:37:21.453Z,100499.94
2022-08-22T12:39:41.914Z,100494.25
2022-08-22T12:42:15.343Z,100492.81
2022-08-22T12:44:29.962Z,100489.59
2022-08-22T12:46:46.518Z,100488.09
2022-08-22T12:49:14.616Z,100487.66
2022-08-22T12:51:39.021Z,100495.19
2022-08-22T12:53:53.889Z,100495.97
2022-08-22T12:56:02.097Z,100488.63
2022-08-22T12:58:33.482Z,100486.50
2022-08-22T13:00:47.518Z,100482.28
2022-08-22T13:02:54.232Z,100486.47
2022-08-22T13:05:01.738Z,100488.56
2022-08-22T13:07:30.741Z,100483.94
2022-08-22T13:09:47.090Z,100479.19
2022-08-22T13:11:54.642Z,100481.78
2022-08-22T13:14:02.593Z,100477.19
2022-08-22T13:16:13.308Z,100469.84
2022-08-22T13:18:29.871Z,100479.13
2022-08-22T13:20:39.063Z,100470.41
2022-08-22T13:22:46.562Z,100473.69
2022-08-22T13:24:57.422Z,100473.91
2022-08-22T13:27:06.240Z,100463.81
2022-08-22T13:29:26.087Z,100477.00
2022-08-22T13:31:36.188Z,100469.84
2022-08-22T13:33:47.919Z,100469.34
2022-08-22T13:35:58.555Z,100472.50
2022-08-22T13:38:13.706Z,100469.94
2022-08-22T13:40:31.260Z,100467.47
2022-08-22T13:42:44.057Z,100473.91
2022-08-22T13:44:55.066Z,100477.75
2022-08-22T13:47:23.926Z,100469.94
2022-08-22T13:49:39.842Z,100468.97
2022-08-22T13:51:50.301Z,100476.47
2022-08-22T13:54:11.263Z,100478.34
2022-08-22T13:56:22.246Z,100473.38
2022-08-22T13:58:35.293Z,100480.19
2022-08-22T14:00:57.695Z,100470.13
2022-08-22T14:03:08.192Z,100468.25
2022-08-22T14:05:24.151Z,100474.53
2022-08-22T14:07:55.355Z,100476.81
2022-08-22T14:10:06.894Z,100473.34
2022-08-22T14:12:22.629Z,100471.19
2022-08-22T14:14:31.953Z,100464.59
2022-08-22T14:16:45.816Z,100475.72
2022-08-22T14:18:53.955Z,100471.34
2022-08-22T14:21:16.578Z,100469.63
2022-08-22T14:23:29.528Z,100473.38
2022-08-22T14:25:38.905Z,100468.03
2022-08-22T14:28:00.970Z,100468.53
2022-08-22T14:30:24.481Z,100465.69
2022-08-22T14:32:30.924Z,100464.72
2022-08-22T14:34:39.775Z,100467.28
2022-08-22T14:36:49.296Z,100455.94
2022-08-22T14:39:12.054Z,100461.00
2022-08-22T14:41:17.679Z,100460.41
2022-08-22T14:43:40.509Z,100462.84
2022-08-22T14:45:47.129Z,100462.72
2022-08-22T14:48:30.214Z,100463.03
2022-08-22T14:50:32.877Z,100461.72
2022-08-22T14:52:46.297Z,100461.44
2022-08-22T14:54:48.902Z,100457.16
2022-08-22T14:56:55.048Z,100465.16
2022-08-22T14:59:02.704Z,100470.56
2022-08-22T15:01:15.802Z,100469.59
2022-08-22T15:03:35.047Z,100469.66
2022-08-22T15:05:45.224Z,100466.75
2022-08-22T15:07:59.563Z,100473.03
2022-08-22T15:10:21.594Z,100479.75
2022-08-22T15:12:27.134Z,100474.50
2022-08-22T15:14:35.401Z,100483.03
2022-08-22T15:16:51.633Z,100481.50
2022-08-22T15:18:54.278Z,100478.41
2022-08-22T15:21:10.206Z,100476.69
2022-08-22T15:23:23.082Z,100471.84
2022-08-22T15:25:28.096Z,100470.44
2022-08-22T15:27:34.818Z,100478.16
2022-08-22T15:29:50.661Z,100470.53
2022-08-22T15:31:57.998Z,100469.19
2022-08-22T15:34:24.613Z,100470.84
2022-08-22T15:36:27.697Z,100473.34
2022-08-22T15:38:36.459Z,100476.66
2022-08-22T15:40:43.390Z,100473.81
2022-08-22T15:42:51.506Z,100471.53
2022-08-22T15:44:57.840Z,100480.19
2022-08-22T15:47:28.434Z,100470.81
2022-08-22T15:49:38.313Z,100476.47
2022-08-22T15:52:00.735Z,100483.44
2022-08-22T15:54:24.301Z,100477.34
2022-08-22T15:56:47.510Z,100477.31
2022-08-22T15:59:13.150Z,100486.94
2022-08-22T16:01:22.492Z,100484.94
2022-08-22T16:03:28.650Z,100490.53
2022-08-22T16:05:46.832Z,100487.22
2022-08-22T16:08:04.867Z,100489.16
2022-08-22T16:10:54.077Z,100492.78
2022-08-22T16:13:38.163Z,100492.53
2022-08-22T16:15:55.737Z,100484.84
2022-08-22T16:17:59.294Z,100490.34
2022-08-22T16:20:19.605Z,100480.66
2022-08-22T16:22:46.915Z,100494.03
2022-08-22T16:24:59.849Z,100495.09
2022-08-22T16:27:20.770Z,100490.31
2022-08-22T16:29:41.494Z,100499.78
2022-08-22T16:31:44.415Z,100493.47
2022-08-22T16:33:47.595Z,100496.91
2022-08-22T16:36:20.968Z,100507.91
2022-08-22T16:38:36.756Z,100502.50
2022-08-22T16:40:48.754Z,100508.03
2022-08-22T16:43:11.987Z,100504.97
2022-08-22T16:45:30.254Z,100502.38
2022-08-22T16:47:42.133Z,100504.06
2022-08-22T16:49:50.466Z,100504.63
2022-08-22T16:52:21.102Z,100502.28
2022-08-22T16:54:48.836Z,100490.78
2022-08-22T16:57:10.566Z,100508.25
2022-08-22T16:59:33.219Z,100507.22
2022-08-22T17:02:20.574Z,100507.41
2022-08-22T17:05:03.480Z,100503.56
2022-08-22T17:07:24.283Z,100508.66
2022-08-22T17:09:29.603Z,100505.53
2022-08-22T17:11:47.503Z,100506.81
2022-08-22T17:13:58.922Z,100508.88
2022-08-22T17:16:16.910Z,100516.56
2022-08-22T17:18:37.892Z,100513.84
2022-08-22T17:20:46.329Z,100515.97
2022-08-22T17:22:51.469Z,100508.38
2022-08-22T17:25:12.290Z,100510.47
2022-08-22T17:27:30.657Z,100507.72
2022-08-22T17:29:52.501Z,100511.03
2022-08-22T17:32:47.390Z,100507.88
2022-08-22T17:35:45.226Z,100505.53
2022-08-22T17:37:59.897Z,100509.63
2022-08-22T17:40:20.965Z,100503.19
2022-08-22T17:42:23.588Z,100506.03
2022-08-22T17:44:34.375Z,100509.00
2022-08-22T17:47:03.421Z,100505.00
2022-08-22T17:49:11.804Z,100504.63
2022-08-22T17:51:29.189Z,100513.16
2022-08-22T17:53:57.011Z,100509.22
2022-08-22T17:56:24.410Z,100506.47
2022-08-22T17:58:43.465Z,100509.34
2022-08-22T18:01:03.766Z,100516.69
2022-08-22T18:03:09.387Z,100511.88
2022-08-22T18:09:17.277Z,100507.63
2022-08-22T18:11:30.184Z,100503.59
2022-08-22T18:14:07.470Z,100500.00
2022-08-22T18:16:29.574Z,100504.88
2022-08-22T18:18:37.797Z,100502.50
2022-08-22T18:20:50.991Z,100507.38
2022-08-22T18:23:36.154Z,100500.13
2022-08-22T18:25:54.663Z,100496.91
2022-08-22T18:28:12.393Z,100500.59
2022-08-22T18:30:22.297Z,100501.84
2022-08-22T18:32:33.291Z,100498.66
2022-08-22T18:35:05.286Z,100504.31
2022-08-22T18:37:21.927Z,100505.19
2022-08-22T18:39:56.494Z,100504.41
2022-08-22T18:42:11.442Z,100500.38
2022-08-22T18:44:21.741Z,100508.06
2022-08-22T18:46:43.649Z,100501.63
2022-08-22T18:49:12.104Z,100502.81
2022-08-22T18:51:25.968Z,100497.22
2022-08-22T18:53:44.316Z,100501.66
2022-08-22T18:55:58.481Z,100506.13
2022-08-22T18:58:11.351Z,100508.56
2022-08-22T19:00:17.149Z,100509.78
2022-08-22T19:02:37.950Z,100507.81
2022-08-22T19:05:17.703Z,100517.09
2022-08-22T19:07:51.273Z,100516.72
2022-08-22T19:10:16.052Z,100515.09
2022-08-22T19:12:56.005Z,100512.31
2022-08-22T19:15:04.458Z,100511.50
2022-08-22T19:17:13.860Z,100511.91
2022-08-22T19:19:58.997Z,100509.13
2022-08-22T19:22:29.778Z,100518.38
2022-08-22T19:24:57.291Z,100514.78
2022-08-22T19:27:12.539Z,100511.56
2022-08-22T19:29:18.237Z,100513.56
2022-08-22T19:31:35.760Z,100507.16
2022-08-22T19:33:59.884Z,100507.94
2022-08-22T19:36:13.004Z,100511.97
2022-08-22T19:38:54.365Z,100507.97
2022-08-22T19:40:58.612Z,100511.94
2022-08-22T19:43:17.282Z,100517.56
2022-08-22T19:45:28.966Z,100512.75
2022-08-22T19:47:39.420Z,100509.94
2022-08-22T19:50:05.644Z,100517.19
2022-08-22T19:52:27.217Z,100519.97
2022-08-22T19:54:31.905Z,100507.50
2022-08-22T19:57:01.212Z,100512.72
2022-08-22T19:59:20.363Z,100520.75
2022-08-22T20:01:37.795Z,100522.38
2022-08-22T20:03:59.191Z,100513.91
2022-08-22T20:06:43.475Z,100512.72
2022-08-22T20:09:09.764Z,100522.72
2022-08-22T20:11:29.863Z,100527.16
2022-08-22T20:13:35.789Z,100520.72
2022-08-22T20:16:10.929Z,100527.94
2022-08-22T20:18:47.246Z,100525.09
2022-08-22T20:20:55.794Z,100529.50
2022-08-22T20:23:25.339Z,100527.44
2022-08-22T20:25:51.144Z,100533.06
2022-08-22T20:28:02.026Z,100527.44
2022-08-22T20:30:15.452Z,100530.66
2022-08-22T20:32:21.609Z,100527.81
2022-08-22T20:34:28.685Z,100529.03
2022-08-22T20:36:32.598Z,100532.22
2022-08-22T20:38:42.211Z,100538.22
2022-08-22T20:41:20.615Z,100539.03
2022-08-22T20:43:34.622Z,100538.19
2022-08-22T20:45:43.829Z,100546.22
2022-08-22T20:47:51.596Z,100547.81
2022-08-22T20:50:02.002Z,100539.38
2022-08-22T20:52:21.770Z,100540.19
2022-08-22T20:54:28.568Z,100546.16
2022-08-22T20:56:52.867Z,100539.69
2022-08-22T20:59:00.930Z,100551.34
2022-08-22T21:01:06.204Z,100552.94
2022-08-22T21:03:30.495Z,100559.34
2022-08-22T21:05:40.510Z,100550.06
2022-08-22T21:07:45.987Z,100556.47
2022-08-22T21:10:22.736Z,100556.47
2022-08-22T21:12:26.581Z,100554.78
2022-08-22T21:14:34.199Z,100557.19
2022-08-22T21:16:36.757Z,100559.56
2022-08-22T21:18:42.557Z,100561.97
2022-08-22T21:20:48.652Z,100567.53
2022-08-22T21:22:51.548Z,100569.16
2022-08-22T21:24:59.286Z,100569.94
2022-08-22T21:27:03.201Z,100571.13
2022-08-22T21:29:22.505Z,100573.88
2022-08-22T21:31:35.507Z,100569.81
2022-08-22T21:33:44.078Z,100571.81
2022-08-22T21:35:55.767Z,100574.97
2022-08-22T21:38:01.395Z,100574.97
2022-08-22T21:40:18.845Z,100573.72
2022-08-22T21:42:29.314Z,100575.72
2022-08-22T21:44:31.798Z,100578.09
2022-08-22T21:46:34.371Z,100584.09
2022-08-22T21:48:59.115Z,100581.69
2022-08-22T21:51:43.903Z,100584.06
2022-08-22T21:53:46.547Z,100582.00
2022-08-22T21:56:13.744Z,100590.78
2022-08-22T21:58:34.220Z,100593.16
2022-08-22T22:00:48.757Z,100593.88
2022-08-22T22:02:59.418Z,100595.03
2022-08-22T22:05:08.717Z,100583.78
2022-08-22T22:07:11.814Z,100593.78
2022-08-22T22:09:18.163Z,100594.97
2022-08-22T22:11:21.106Z,100595.75
2022-08-22T22:13:27.178Z,100597.75
2022-08-22T22:15:37.479Z,100601.31
2022-08-22T22:17:40.076Z,100604.88
2022-08-22T22:19:42.869Z,100603.28
2022-08-22T22:21:45.514Z,100607.66
2022-08-22T22:23:49.463Z,100610.84
2022-08-22T22:25:53.635Z,100608.41
2022-08-22T22:27:57.637Z,100606.00
2022-08-22T22:30:00.885Z,100611.22
2022-08-22T22:32:04.274Z,100610.41
2022-08-22T22:34:07.033Z,100613.63
2022-08-22T22:36:13.635Z,100619.16
2022-08-22T22:38:21.862Z,100620.75
2022-08-22T22:40:26.562Z,100617.88
2022-08-22T22:42:29.200Z,100616.22
2022-08-22T22:44:31.809Z,100621.38
2022-08-22T22:46:34.432Z,100616.88
2022-08-22T22:48:37.076Z,100624.75
2022-08-22T22:50:43.323Z,100623.91
2022-08-22T22:52:45.871Z,100632.66
2022-08-22T22:54:48.619Z,100633.41
2022-08-22T22:56:52.996Z,100631.75
2022-08-22T22:58:58.999Z,100624.47
2022-08-22T23:01:22.453Z,100624.00
2022-08-22T23:03:26.957Z,100627.13
2022-08-22T23:05:30.327Z,100628.66
2022-08-22T23:07:33.972Z,100633.03
2022-08-22T23:09:38.458Z,100631.00
2022-08-22T23:11:47.239Z,100637.72
2022-08-22T23:13:50.277Z,100631.25
2022-08-22T23:15:52.840Z,100634.38
2022-08-22T23:17:55.785Z,100629.91
2022-08-22T23:19:58.571Z,100634.25
2022-08-22T23:22:01.595Z,100625.41
2022-08-22T23:24:05.996Z,100636.91
2022-08-22T23:26:09.378Z,100633.25
2022-08-22T23:28:12.077Z,100637.59
2022-08-22T23:30:14.853Z,100632.31
2022-08-22T23:32:17.745Z,100634.28
2022-08-22T23:34:23.690Z,100636.28
2022-08-22T23:36:26.492Z,100633.41
2022-08-22T23:38:29.614Z,100627.38
2022-08-22T23:40:32.322Z,100632.97
2022-08-22T23:42:35.433Z,100635.34
2022-08-22T23:44:40.190Z,100638.13
2022-08-22T23:46:44.804Z,100631.75
2022-08-22T23:48:47.732Z,100636.94
2022-08-22T23:50:50.684Z,100638.50
2022-08-22T23:52:53.345Z,100640.84
2022-08-22T23:54:56.304Z,100634.78
2022-08-22T23:57:01.772Z,100641.19
2022-08-22T23:59:08.789Z,100641.53
